createdAt,value
2023-03-24T00:00:28.578Z,74.34
2023-03-24T00:01:30.673Z,74.08
2023-03-24T00:02:37.932Z,73.65
2023-03-24T00:03:40.434Z,73.33
2023-03-24T00:04:42.985Z,72.97
2023-03-24T00:05:45.103Z,73.89
2023-03-24T00:06:49.432Z,73.85
2023-03-24T00:08:56.152Z,73.67
2023-03-24T00:09:57.985Z,73.52
2023-03-24T00:11:01.962Z,73.53
2023-03-24T00:12:04.177Z,72.97
2023-03-24T00:13:06.280Z,73.38
2023-03-24T00:14:12.349Z,73.16
2023-03-24T00:15:15.711Z,72.41
2023-03-24T00:16:19.822Z,72.75
2023-03-24T00:17:25.603Z,73.75
2023-03-24T00:18:27.549Z,73.81
2023-03-24T00:19:29.410Z,74.55
2023-03-24T00:20:33.155Z,74.48
2023-03-24T00:21:35.092Z,73.95
2023-03-24T00:22:36.862Z,73.88
2023-03-24T00:23:38.753Z,73.64
2023-03-24T00:24:41.336Z,73.15
2023-03-24T00:25:43.127Z,73.21
2023-03-24T00:26:45.000Z,73.08
2023-03-24T00:27:49.139Z,73.08
2023-03-24T00:28:51.482Z,72.74
2023-03-24T00:29:53.341Z,73.51
2023-03-24T00:30:55.131Z,73.18
2023-03-24T00:31:56.982Z,72.89
2023-03-24T00:32:59.277Z,72.60
2023-03-24T00:34:03.160Z,73.02
2023-03-24T00:35:09.207Z,73.04
2023-03-24T00:36:14.416Z,73.18
2023-03-24T00:37:16.372Z,73.44
2023-03-24T00:38:19.851Z,72.85
2023-03-24T00:39:21.715Z,72.76
2023-03-24T00:40:23.759Z,72.12
2023-03-24T00:41:27.438Z,72.53
2023-03-24T00:42:29.670Z,72.28
2023-03-24T00:43:31.942Z,72.19
2023-03-24T00:44:34.713Z,72.83
2023-03-24T00:45:36.536Z,73.46
2023-03-24T00:46:39.232Z,73.48
2023-03-24T00:47:41.801Z,74.47
2023-03-24T00:48:43.601Z,74.46
2023-03-24T00:49:45.449Z,73.80
2023-03-24T00:50:48.629Z,74.21
2023-03-24T00:51:51.690Z,73.85
2023-03-24T00:52:53.917Z,74.40
2023-03-24T00:53:58.363Z,74.22
2023-03-24T00:55:02.431Z,74.30
2023-03-24T00:56:04.408Z,74.14
2023-03-24T00:57:07.558Z,74.25
2023-03-24T00:58:09.472Z,75.19
2023-03-24T00:59:11.370Z,74.88
2023-03-24T01:00:17.188Z,74.30
2023-03-24T01:01:19.178Z,74.22
2023-03-24T01:02:24.844Z,73.99
2023-03-24T01:03:27.764Z,73.48
2023-03-24T01:04:31.019Z,74.54
2023-03-24T01:05:33.363Z,74.98
2023-03-24T01:06:37.430Z,74.75
2023-03-24T01:07:42.487Z,74.55
2023-03-24T01:08:45.652Z,74.97
2023-03-24T01:09:59.986Z,75.20
2023-03-24T01:11:01.777Z,74.80
2023-03-24T01:12:04.802Z,75.17
2023-03-24T01:13:06.700Z,74.26
2023-03-24T01:14:09.953Z,74.21
2023-03-24T01:15:16.679Z,73.77
2023-03-24T01:16:18.906Z,73.49
2023-03-24T01:17:25.760Z,74.23
2023-03-24T01:18:28.114Z,73.65
2023-03-24T01:19:30.146Z,74.16
2023-03-24T01:20:33.417Z,74.46
2023-03-24T01:21:37.300Z,74.25
2023-03-24T01:22:40.183Z,73.79
2023-03-24T01:23:42.442Z,73.63
2023-03-24T01:24:44.462Z,73.91
2023-03-24T01:25:48.419Z,73.37
2023-03-24T01:26:50.265Z,73.56
2023-03-24T01:27:52.597Z,73.64
2023-03-24T01:28:54.549Z,73.53
2023-03-24T01:30:00.513Z,74.47
2023-03-24T01:31:02.393Z,74.90
2023-03-24T01:32:04.319Z,74.13
2023-03-24T01:33:06.972Z,73.87
2023-03-24T01:34:08.970Z,73.36
2023-03-24T01:35:11.792Z,74.45
2023-03-24T01:36:13.843Z,74.10
2023-03-24T01:37:15.756Z,74.05
2023-03-24T01:38:17.677Z,73.96
2023-03-24T01:39:19.609Z,74.68
2023-03-24T01:40:26.063Z,74.69
2023-03-24T01:41:30.637Z,74.62
2023-03-24T01:42:32.401Z,74.28
2023-03-24T01:43:34.846Z,73.94
2023-03-24T01:44:38.015Z,73.78
2023-03-24T01:45:40.020Z,73.85
2023-03-24T01:46:41.965Z,74.09
2023-03-24T01:47:43.820Z,73.70
2023-03-24T01:48:53.605Z,73.52
2023-03-24T01:49:59.659Z,73.45
2023-03-24T01:51:13.051Z,73.40
2023-03-24T01:52:17.738Z,73.24
2023-03-24T01:53:20.790Z,72.78
2023-03-24T01:54:23.033Z,73.62
2023-03-24T01:55:24.966Z,74.00
2023-03-24T01:56:27.830Z,73.65
2023-03-24T01:57:37.357Z,74.28
2023-03-24T01:58:41.582Z,74.78
2023-03-24T01:59:46.023Z,75.23
2023-03-24T02:00:48.205Z,74.96
2023-03-24T02:01:50.081Z,75.17
2023-03-24T02:02:55.146Z,75.12
2023-03-24T02:03:58.265Z,75.24
2023-03-24T02:05:02.729Z,75.24
2023-03-24T02:06:05.352Z,75.48
2023-03-24T02:07:19.605Z,75.59
2023-03-24T02:08:31.363Z,75.85
2023-03-24T02:09:34.335Z,75.47
2023-03-24T02:10:36.820Z,75.23
2023-03-24T02:11:39.247Z,74.67
2023-03-24T02:12:42.221Z,74.75
2023-03-24T02:13:44.150Z,74.97
2023-03-24T02:14:46.746Z,75.26
2023-03-24T02:16:07.617Z,75.51
2023-03-24T02:17:22.031Z,75.63
2023-03-24T02:18:34.279Z,75.94
2023-03-24T02:19:38.590Z,75.40
2023-03-24T02:20:43.631Z,74.99
2023-03-24T02:22:05.664Z,75.02
2023-03-24T02:23:14.941Z,74.99
2023-03-24T02:24:29.117Z,75.24
2023-03-24T02:25:43.137Z,75.44
2023-03-24T02:26:47.910Z,75.25
2023-03-24T02:27:55.832Z,75.86
2023-03-24T02:29:04.044Z,75.61
2023-03-24T02:30:08.828Z,75.71
2023-03-24T02:31:33.957Z,75.98
2023-03-24T02:32:38.351Z,75.51
2023-03-24T02:33:43.845Z,76.02
2023-03-24T02:34:55.404Z,75.97
2023-03-24T02:35:57.180Z,75.98
2023-03-24T02:37:19.092Z,75.59
2023-03-24T02:38:29.801Z,74.99
2023-03-24T02:39:48.620Z,74.99
2023-03-24T02:41:09.102Z,75.58
2023-03-24T02:42:10.933Z,76.00
2023-03-24T02:43:18.909Z,75.67
2023-03-24T02:44:25.569Z,75.67
2023-03-24T02:45:39.581Z,75.50
2023-03-24T02:46:41.956Z,75.54
2023-03-24T02:47:46.767Z,75.50
2023-03-24T02:48:51.849Z,76.42
2023-03-24T02:50:10.658Z,75.92
2023-03-24T02:51:17.388Z,76.90
2023-03-24T02:52:19.130Z,76.47
2023-03-24T02:53:24.809Z,76.42
2023-03-24T02:54:38.525Z,76.27
2023-03-24T02:55:40.368Z,76.02
2023-03-24T02:56:45.282Z,75.66
2023-03-24T02:57:56.654Z,75.37
2023-03-24T02:59:10.546Z,75.65
2023-03-24T03:00:18.976Z,75.88
2023-03-24T03:01:32.648Z,75.54
2023-03-24T03:02:38.013Z,75.51
2023-03-24T03:03:42.019Z,75.93
2023-03-24T03:05:14.320Z,76.07
2023-03-24T03:06:16.138Z,75.88
2023-03-24T03:07:22.234Z,76.14
2023-03-24T03:08:25.771Z,76.24
2023-03-24T03:09:29.124Z,75.99
2023-03-24T03:10:33.835Z,76.87
2023-03-24T03:11:36.056Z,76.14
2023-03-24T03:12:38.955Z,76.37
2023-03-24T03:13:44.027Z,76.47
2023-03-24T03:14:52.198Z,76.04
2023-03-24T03:15:56.113Z,76.59
2023-03-24T03:17:04.578Z,77.48
2023-03-24T03:18:21.360Z,77.39
2023-03-24T03:19:26.858Z,77.21
2023-03-24T03:20:31.286Z,77.17
2023-03-24T03:21:36.699Z,77.62
2023-03-24T03:22:45.582Z,77.48
2023-03-24T03:23:51.157Z,77.40
2023-03-24T03:24:54.442Z,77.23
2023-03-24T03:26:05.776Z,76.75
2023-03-24T03:27:15.261Z,76.75
2023-03-24T03:28:20.836Z,76.76
2023-03-24T03:29:24.237Z,76.65
2023-03-24T03:30:34.010Z,76.71
2023-03-24T03:31:38.453Z,76.47
2023-03-24T03:32:45.417Z,76.48
2023-03-24T03:33:51.437Z,76.41
2023-03-24T03:34:57.434Z,76.64
2023-03-24T03:36:03.726Z,76.39
2023-03-24T03:37:08.280Z,76.09
2023-03-24T03:38:14.922Z,76.14
2023-03-24T03:39:22.820Z,76.35
2023-03-24T03:40:28.173Z,76.17
2023-03-24T03:41:29.992Z,75.96
2023-03-24T03:42:32.017Z,75.81
2023-03-24T03:43:34.287Z,76.10
2023-03-24T03:44:36.125Z,76.18
2023-03-24T03:45:37.965Z,75.84
2023-03-24T03:46:39.987Z,75.88
2023-03-24T03:47:42.062Z,75.83
2023-03-24T03:48:44.954Z,76.09
2023-03-24T03:49:46.669Z,75.65
2023-03-24T03:50:49.728Z,75.98
2023-03-24T03:51:55.908Z,76.17
2023-03-24T03:52:57.921Z,76.70
2023-03-24T03:54:01.842Z,76.42
2023-03-24T03:55:04.458Z,76.61
2023-03-24T03:56:06.407Z,76.58
2023-03-24T03:57:08.646Z,76.61
2023-03-24T03:58:10.583Z,76.72
2023-03-24T03:59:24.029Z,76.45
2023-03-24T04:00:26.296Z,76.83
2023-03-24T04:01:29.407Z,77.02
2023-03-24T04:02:49.708Z,77.53
2023-03-24T04:03:59.854Z,77.91
2023-03-24T04:05:06.299Z,77.98
2023-03-24T04:06:27.553Z,77.67
2023-03-24T04:07:46.690Z,77.66
2023-03-24T04:08:50.133Z,77.84
2023-03-24T04:09:51.952Z,77.82
2023-03-24T04:10:59.764Z,77.61
2023-03-24T04:12:02.094Z,77.31
2023-03-24T04:13:14.304Z,77.39
2023-03-24T04:14:16.177Z,77.03
2023-03-24T04:15:30.314Z,77.07
2023-03-24T04:16:46.010Z,76.83
2023-03-24T04:17:48.546Z,76.55
2023-03-24T04:19:07.991Z,76.42
2023-03-24T04:20:15.508Z,76.42
2023-03-24T04:21:23.505Z,76.32
2023-03-24T04:22:40.610Z,76.20
2023-03-24T04:23:46.246Z,76.06
2023-03-24T04:24:52.146Z,75.83
2023-03-24T04:25:58.762Z,75.79
2023-03-24T04:27:09.668Z,75.62
2023-03-24T04:28:11.395Z,75.63
2023-03-24T04:29:18.655Z,76.15
2023-03-24T04:30:46.747Z,76.52
2023-03-24T04:32:19.819Z,77.25
2023-03-24T04:33:29.074Z,77.49
2023-03-24T04:34:36.340Z,77.34
2023-03-24T04:35:42.656Z,77.19
2023-03-24T04:36:50.636Z,77.45
2023-03-24T04:37:53.352Z,76.90
2023-03-24T04:38:57.604Z,76.65
2023-03-24T04:40:01.804Z,76.40
2023-03-24T04:41:05.980Z,76.66
2023-03-24T04:42:12.279Z,76.25
2023-03-24T04:43:17.832Z,76.28
2023-03-24T04:44:22.077Z,75.83
2023-03-24T04:45:27.431Z,75.87
2023-03-24T04:46:30.619Z,75.91
2023-03-24T04:47:38.753Z,75.50
2023-03-24T04:48:40.890Z,75.08
2023-03-24T04:49:43.084Z,75.07
2023-03-24T04:50:50.354Z,74.57
2023-03-24T04:51:52.306Z,74.45
2023-03-24T04:52:54.099Z,74.79
2023-03-24T04:53:56.057Z,74.57
2023-03-24T04:54:57.991Z,74.44
2023-03-24T04:56:35.116Z,74.48
2023-03-24T04:57:36.968Z,74.81
2023-03-24T04:58:38.952Z,74.71
2023-03-24T04:59:40.890Z,75.35
2023-03-24T05:00:44.597Z,75.11
2023-03-24T05:01:52.584Z,75.14
2023-03-24T05:02:54.400Z,75.19
2023-03-24T05:03:57.524Z,75.41
2023-03-24T05:04:59.503Z,75.41
2023-03-24T05:06:01.972Z,75.35
2023-03-24T05:07:04.631Z,75.29
2023-03-24T05:08:06.503Z,75.72
2023-03-24T05:09:08.443Z,75.81
2023-03-24T05:10:11.011Z,76.09
2023-03-24T05:11:12.930Z,76.01
2023-03-24T05:12:14.855Z,76.02
2023-03-24T05:13:16.963Z,76.00
2023-03-24T05:14:18.773Z,75.91
2023-03-24T05:15:20.803Z,75.97
2023-03-24T05:16:22.792Z,76.16
2023-03-24T05:17:24.603Z,76.26
2023-03-24T05:18:26.709Z,76.16
2023-03-24T05:19:28.538Z,76.10
2023-03-24T05:20:30.565Z,76.00
2023-03-24T05:21:33.890Z,76.40
2023-03-24T05:22:35.740Z,76.15
2023-03-24T05:23:37.928Z,75.83
2023-03-24T05:24:40.962Z,75.67
2023-03-24T05:25:43.040Z,75.53
2023-03-24T05:26:45.144Z,75.27
2023-03-24T05:27:47.611Z,75.42
2023-03-24T05:28:49.453Z,74.88
2023-03-24T05:29:51.207Z,74.71
2023-03-24T05:30:53.022Z,74.68
2023-03-24T05:31:54.884Z,74.40
2023-03-24T05:32:56.707Z,74.58
2023-03-24T05:33:58.540Z,74.58
2023-03-24T05:35:00.541Z,74.45
2023-03-24T05:36:02.588Z,74.83
2023-03-24T05:37:04.509Z,74.86
2023-03-24T05:38:06.306Z,75.13
2023-03-24T05:39:08.251Z,74.94
2023-03-24T05:40:10.376Z,75.08
2023-03-24T05:41:12.127Z,75.09
2023-03-24T05:42:14.477Z,74.92
2023-03-24T05:43:16.294Z,74.91
2023-03-24T05:44:18.083Z,75.02
2023-03-24T05:45:20.200Z,75.18
2023-03-24T05:46:23.252Z,75.18
2023-03-24T05:47:27.620Z,74.97
2023-03-24T05:48:29.490Z,75.23
2023-03-24T05:49:32.154Z,74.98
2023-03-24T05:50:34.238Z,75.01
2023-03-24T05:51:36.018Z,74.73
2023-03-24T05:52:37.928Z,74.88
2023-03-24T05:53:39.753Z,74.83
2023-03-24T05:54:41.924Z,74.50
2023-03-24T05:55:45.476Z,74.52
2023-03-24T05:56:47.455Z,74.27
2023-03-24T05:57:49.299Z,74.71
2023-03-24T05:58:51.830Z,74.45
2023-03-24T05:59:53.548Z,74.34
2023-03-24T06:00:55.298Z,74.15
2023-03-24T06:01:57.165Z,74.65
2023-03-24T06:02:59.892Z,74.32
2023-03-24T06:04:01.868Z,74.32
2023-03-24T06:05:04.274Z,74.43
2023-03-24T06:06:09.894Z,74.59
2023-03-24T06:07:11.856Z,74.11
2023-03-24T06:08:13.805Z,74.74
2023-03-24T06:09:17.257Z,74.40
2023-03-24T06:10:19.219Z,74.29
2023-03-24T06:11:21.138Z,74.13
2023-03-24T06:12:22.884Z,74.12
2023-03-24T06:13:24.883Z,73.97
2023-03-24T06:14:26.852Z,73.97
2023-03-24T06:15:28.646Z,74.14
2023-03-24T06:16:34.089Z,74.18
2023-03-24T06:17:37.737Z,73.94
2023-03-24T06:18:42.977Z,74.29
2023-03-24T06:19:49.843Z,74.10
2023-03-24T06:20:51.800Z,74.00
2023-03-24T06:21:54.047Z,74.00
2023-03-24T06:22:59.491Z,74.34
2023-03-24T06:24:01.360Z,74.34
2023-03-24T06:25:05.365Z,74.18
2023-03-24T06:26:09.342Z,74.53
2023-03-24T06:27:11.728Z,74.37
2023-03-24T06:28:14.549Z,74.11
2023-03-24T06:29:18.342Z,74.07
2023-03-24T06:30:20.469Z,73.91
2023-03-24T06:31:22.370Z,73.63
2023-03-24T06:32:24.580Z,73.61
2023-03-24T06:33:26.403Z,73.64
2023-03-24T06:34:29.798Z,73.46
2023-03-24T06:35:31.677Z,73.45
2023-03-24T06:36:34.897Z,73.55
2023-03-24T06:37:36.688Z,73.68
2023-03-24T06:38:38.688Z,73.31
2023-03-24T06:39:41.221Z,73.00
2023-03-24T06:40:43.052Z,73.10
2023-03-24T06:41:44.874Z,73.05
2023-03-24T06:42:46.797Z,72.96
2023-03-24T06:43:48.616Z,73.17
2023-03-24T06:44:51.606Z,73.38
2023-03-24T06:45:53.372Z,73.67
2023-03-24T06:46:55.324Z,73.38
2023-03-24T06:47:57.602Z,73.59
2023-03-24T06:48:59.520Z,73.40
2023-03-24T06:50:01.444Z,73.20
2023-03-24T06:51:03.486Z,73.52
2023-03-24T06:52:05.447Z,73.45
2023-03-24T06:53:07.257Z,73.42
2023-03-24T06:54:09.783Z,73.47
2023-03-24T06:55:11.706Z,73.32
2023-03-24T06:56:18.537Z,72.80
2023-03-24T06:57:20.660Z,72.86
2023-03-24T06:58:22.887Z,72.77
2023-03-24T06:59:24.922Z,72.59
2023-03-24T07:00:27.394Z,72.37
2023-03-24T07:01:29.974Z,72.71
2023-03-24T07:02:35.818Z,72.72
2023-03-24T07:03:39.022Z,72.64
2023-03-24T07:04:40.821Z,72.76
2023-03-24T07:05:43.803Z,72.41
2023-03-24T07:06:58.559Z,72.33
2023-03-24T07:08:33.982Z,72.33
2023-03-24T07:09:29.761Z,71.92
2023-03-24T07:10:31.680Z,72.13
2023-03-24T07:11:33.506Z,71.97
2023-03-24T07:12:35.719Z,71.79
2023-03-24T07:13:37.794Z,71.80
2023-03-24T07:14:39.763Z,71.39
2023-03-24T07:15:41.958Z,71.43
2023-03-24T07:16:43.898Z,71.73
2023-03-24T07:17:46.062Z,71.80
2023-03-24T07:18:48.318Z,71.61
2023-03-24T07:19:50.154Z,71.49
2023-03-24T07:20:51.957Z,71.41
2023-03-24T07:21:53.836Z,71.21
2023-03-24T07:22:56.264Z,71.29
2023-03-24T07:23:58.112Z,71.10
2023-03-24T07:25:04.642Z,70.86
2023-03-24T07:26:07.049Z,70.94
2023-03-24T07:27:09.411Z,70.28
2023-03-24T07:28:11.252Z,70.48
2023-03-24T07:29:13.086Z,70.70
2023-03-24T07:30:15.047Z,70.52
2023-03-24T07:31:16.936Z,70.83
2023-03-24T07:32:19.066Z,70.11
2023-03-24T07:33:21.171Z,70.32
2023-03-24T07:34:23.028Z,70.38
2023-03-24T07:35:24.961Z,69.65
2023-03-24T07:36:26.778Z,69.84
2023-03-24T07:37:28.745Z,69.71
2023-03-24T07:38:31.254Z,69.58
2023-03-24T07:39:33.246Z,69.95
2023-03-24T07:40:37.651Z,69.17
2023-03-24T07:41:39.413Z,69.52
2023-03-24T07:42:42.514Z,69.29
2023-03-24T07:43:44.289Z,69.85
2023-03-24T07:44:46.682Z,69.49
2023-03-24T07:45:48.996Z,69.02
2023-03-24T07:46:51.280Z,68.86
2023-03-24T07:47:53.249Z,68.82
2023-03-24T07:48:55.085Z,68.43
2023-03-24T07:49:56.842Z,68.62
2023-03-24T07:50:58.610Z,68.89
2023-03-24T07:52:01.941Z,67.58
2023-03-24T07:53:03.997Z,67.85
2023-03-24T07:54:05.800Z,68.17
2023-03-24T07:55:09.792Z,68.14
2023-03-24T07:56:12.681Z,67.76
2023-03-24T07:57:14.610Z,67.29
2023-03-24T07:58:16.516Z,66.81
2023-03-24T07:59:18.425Z,66.86
2023-03-24T08:00:20.570Z,67.40
2023-03-24T08:01:22.971Z,67.52
2023-03-24T08:02:24.761Z,67.68
2023-03-24T08:03:28.734Z,67.49
2023-03-24T08:04:32.385Z,67.76
2023-03-24T08:05:34.569Z,67.26
2023-03-24T08:06:36.342Z,66.83
2023-03-24T08:07:42.838Z,67.11
2023-03-24T08:08:44.709Z,67.03
2023-03-24T08:09:46.531Z,67.07
2023-03-24T08:10:50.568Z,67.41
2023-03-24T08:11:52.289Z,66.96
2023-03-24T08:12:54.154Z,66.91
2023-03-24T08:13:56.314Z,66.89
2023-03-24T08:14:58.111Z,66.66
2023-03-24T08:15:59.927Z,66.60
2023-03-24T08:17:01.917Z,66.66
2023-03-24T08:18:04.541Z,66.42
2023-03-24T08:19:11.581Z,65.99
2023-03-24T08:20:15.034Z,66.09
2023-03-24T08:21:17.042Z,66.80
2023-03-24T08:22:18.879Z,66.40
2023-03-24T08:23:20.664Z,66.13
2023-03-24T08:24:22.646Z,66.20
2023-03-24T08:25:26.103Z,65.91
2023-03-24T08:26:28.026Z,65.79
2023-03-24T08:27:29.816Z,65.70
2023-03-24T08:28:31.635Z,65.62
2023-03-24T08:29:36.436Z,65.33
2023-03-24T08:30:38.282Z,65.16
2023-03-24T08:31:40.235Z,65.82
2023-03-24T08:32:46.059Z,65.44
2023-03-24T08:33:47.974Z,65.45
2023-03-24T08:34:49.805Z,65.38
2023-03-24T08:35:52.882Z,65.54
2023-03-24T08:36:54.634Z,65.72
2023-03-24T08:37:56.388Z,65.77
2023-03-24T08:38:58.212Z,66.03
2023-03-24T08:40:05.749Z,66.19
2023-03-24T08:41:08.679Z,65.48
2023-03-24T08:42:10.762Z,64.36
2023-03-24T08:43:16.134Z,64.06
2023-03-24T08:44:17.938Z,63.83
2023-03-24T08:45:24.137Z,63.40
2023-03-24T08:46:26.174Z,63.71
2023-03-24T08:47:30.957Z,63.62
2023-03-24T08:48:33.239Z,63.85
2023-03-24T08:49:35.154Z,64.01
2023-03-24T08:50:39.249Z,62.95
2023-03-24T08:51:41.512Z,63.64
2023-03-24T08:52:43.268Z,62.15
2023-03-24T08:53:44.972Z,61.69
2023-03-24T08:54:47.262Z,61.66
2023-03-24T08:55:49.441Z,61.16
2023-03-24T08:56:51.432Z,61.47
2023-03-24T08:57:55.283Z,61.30
2023-03-24T08:58:59.620Z,61.22
2023-03-24T09:00:01.442Z,61.36
2023-03-24T09:01:03.390Z,61.99
2023-03-24T09:02:05.210Z,61.64
2023-03-24T09:03:07.153Z,61.89
2023-03-24T09:04:09.078Z,61.17
2023-03-24T09:05:11.648Z,61.10
2023-03-24T09:06:13.856Z,60.85
2023-03-24T09:07:16.381Z,61.07
2023-03-24T09:08:19.519Z,61.50
2023-03-24T09:09:21.338Z,60.80
2023-03-24T09:10:23.145Z,60.64
2023-03-24T09:11:25.005Z,59.85
2023-03-24T09:12:26.735Z,60.41
2023-03-24T09:13:28.742Z,59.76
2023-03-24T09:14:30.857Z,60.50
2023-03-24T09:15:33.041Z,60.12
2023-03-24T09:16:34.955Z,60.52
2023-03-24T09:17:37.552Z,59.57
2023-03-24T09:18:39.914Z,60.03
2023-03-24T09:19:41.859Z,60.28
2023-03-24T09:20:44.603Z,59.92
2023-03-24T09:21:48.734Z,60.48
2023-03-24T09:22:50.789Z,60.36
2023-03-24T09:23:52.730Z,60.24
2023-03-24T09:24:54.541Z,60.10
2023-03-24T09:25:56.355Z,60.16
2023-03-24T09:26:58.212Z,59.75
2023-03-24T09:28:01.009Z,59.31
2023-03-24T09:29:03.330Z,59.82
2023-03-24T09:30:06.888Z,59.64
2023-03-24T09:31:09.141Z,59.34
2023-03-24T09:32:11.136Z,59.31
2023-03-24T09:33:13.118Z,58.93
2023-03-24T09:34:15.047Z,59.75
2023-03-24T09:35:16.941Z,58.61
2023-03-24T09:36:18.786Z,58.96
2023-03-24T09:37:21.172Z,59.05
2023-03-24T09:38:23.101Z,58.97
2023-03-24T09:39:24.958Z,58.97
2023-03-24T09:40:30.940Z,58.72
2023-03-24T09:41:34.517Z,58.20
2023-03-24T09:42:39.137Z,58.23
2023-03-24T09:43:46.851Z,58.25
2023-03-24T09:44:50.705Z,58.42
2023-03-24T09:45:57.368Z,58.06
2023-03-24T09:47:04.154Z,57.58
2023-03-24T09:48:13.652Z,57.71
2023-03-24T09:49:29.012Z,57.41
2023-03-24T09:50:58.411Z,57.33
2023-03-24T09:52:20.487Z,57.51
2023-03-24T09:53:38.216Z,57.50
2023-03-24T09:54:42.820Z,57.35
2023-03-24T09:55:45.782Z,57.54
2023-03-24T09:56:51.287Z,57.13
2023-03-24T09:58:01.591Z,56.88
2023-03-24T09:59:08.419Z,57.38
2023-03-24T10:00:19.168Z,56.58
2023-03-24T10:01:21.801Z,56.75
2023-03-24T10:02:24.089Z,57.23
2023-03-24T10:03:26.327Z,56.85
2023-03-24T10:04:28.951Z,56.53
2023-03-24T10:05:35.494Z,56.43
2023-03-24T10:06:42.451Z,56.34
2023-03-24T10:08:07.747Z,55.96
2023-03-24T10:09:09.482Z,55.92
2023-03-24T10:10:25.928Z,55.61
2023-03-24T10:11:48.140Z,56.18
2023-03-24T10:12:50.184Z,55.69
2023-03-24T10:14:11.875Z,56.17
2023-03-24T10:15:14.909Z,56.20
2023-03-24T10:16:36.960Z,55.87
2023-03-24T10:18:02.053Z,55.98
2023-03-24T10:19:12.643Z,55.56
2023-03-24T10:20:17.568Z,56.33
2023-03-24T10:21:26.018Z,55.95
2023-03-24T10:22:31.403Z,55.79
2023-03-24T10:23:55.185Z,55.77
2023-03-24T10:25:06.718Z,55.21
2023-03-24T10:26:33.395Z,55.21
2023-03-24T10:27:43.068Z,54.89
2023-03-24T10:28:52.395Z,54.49
2023-03-24T10:29:58.245Z,54.10
2023-03-24T10:31:02.591Z,54.55
2023-03-24T10:32:24.613Z,54.17
2023-03-24T10:33:26.656Z,54.77
2023-03-24T10:34:31.495Z,55.31
2023-03-24T10:35:35.868Z,53.93
2023-03-24T10:36:39.645Z,52.53
2023-03-24T10:37:41.446Z,52.92
2023-03-24T10:38:43.276Z,52.22
2023-03-24T10:39:45.470Z,52.33
2023-03-24T10:40:48.107Z,52.00
2023-03-24T10:41:51.500Z,52.48
2023-03-24T10:43:06.805Z,52.57
2023-03-24T10:44:12.567Z,51.77
2023-03-24T10:45:22.601Z,51.10
2023-03-24T10:46:27.551Z,52.20
2023-03-24T10:47:32.953Z,51.97
2023-03-24T10:48:50.457Z,51.78
2023-03-24T10:50:13.990Z,52.24
2023-03-24T10:51:28.720Z,51.76
2023-03-24T10:52:43.077Z,52.10
2023-03-24T10:53:49.402Z,52.79
2023-03-24T10:55:06.609Z,52.49
2023-03-24T10:56:08.595Z,53.36
2023-03-24T10:57:18.152Z,53.03
2023-03-24T10:58:38.639Z,53.05
2023-03-24T10:59:51.556Z,52.02
2023-03-24T11:00:54.440Z,50.34
2023-03-24T11:01:58.070Z,50.50
2023-03-24T11:03:01.797Z,51.37
2023-03-24T11:04:06.009Z,50.65
2023-03-24T11:05:16.096Z,50.71
2023-03-24T11:06:19.500Z,51.19
2023-03-24T11:07:22.921Z,49.99
2023-03-24T11:08:38.307Z,49.58
2023-03-24T11:09:44.157Z,50.73
2023-03-24T11:10:46.041Z,50.93
2023-03-24T11:11:48.398Z,50.10
2023-03-24T11:12:58.008Z,49.85
2023-03-24T11:14:03.722Z,50.91
2023-03-24T11:15:22.984Z,51.23
2023-03-24T11:16:35.994Z,51.01
2023-03-24T11:17:38.195Z,50.69
2023-03-24T11:18:55.100Z,50.04
2023-03-24T11:19:57.826Z,50.63
2023-03-24T11:21:04.379Z,50.19
2023-03-24T11:22:07.542Z,49.81
2023-03-24T11:23:11.638Z,50.39
2023-03-24T11:24:15.951Z,50.86
2023-03-24T11:25:17.866Z,50.13
2023-03-24T11:26:24.203Z,50.49
2023-03-24T11:27:26.084Z,50.97
2023-03-24T11:28:28.703Z,51.05
2023-03-24T11:29:32.101Z,50.88
2023-03-24T11:30:35.305Z,49.27
2023-03-24T11:31:39.401Z,50.39
2023-03-24T11:32:45.999Z,49.37
2023-03-24T11:33:56.982Z,48.67
2023-03-24T11:35:10.145Z,49.02
2023-03-24T11:36:33.251Z,49.04
2023-03-24T11:37:36.341Z,48.28
2023-03-24T11:38:38.252Z,47.82
2023-03-24T11:39:40.591Z,48.21
2023-03-24T11:40:53.010Z,48.60
2023-03-24T11:42:02.014Z,48.50
2023-03-24T11:43:04.097Z,48.43
2023-03-24T11:44:26.449Z,48.96
2023-03-24T11:45:28.396Z,48.79
2023-03-24T11:46:30.252Z,49.08
2023-03-24T11:47:38.759Z,49.61
2023-03-24T11:48:42.071Z,48.83
2023-03-24T11:49:47.403Z,49.44
2023-03-24T11:50:49.356Z,50.18
2023-03-24T11:51:53.777Z,50.23
2023-03-24T11:53:12.488Z,49.26
2023-03-24T11:54:15.337Z,49.69
2023-03-24T11:55:37.540Z,49.86
2023-03-24T11:56:42.061Z,50.06
2023-03-24T11:57:43.812Z,50.00
2023-03-24T11:59:15.196Z,50.28
2023-03-24T12:00:29.472Z,49.07
2023-03-24T12:01:36.938Z,50.04
2023-03-24T12:02:58.058Z,49.62
2023-03-24T12:04:20.151Z,49.42
2023-03-24T12:05:30.711Z,49.81
2023-03-24T12:06:46.606Z,49.45
2023-03-24T12:08:07.355Z,50.10
2023-03-24T12:09:15.486Z,49.97
2023-03-24T12:10:22.748Z,49.63
2023-03-24T12:11:30.398Z,49.61
2023-03-24T12:12:40.770Z,49.67
2023-03-24T12:13:44.352Z,50.04
2023-03-24T12:15:09.671Z,49.16
2023-03-24T12:16:35.964Z,50.20
2023-03-24T12:17:42.890Z,49.99
2023-03-24T12:19:03.207Z,50.14
2023-03-24T12:20:23.882Z,49.71
2023-03-24T12:21:34.492Z,50.22
2023-03-24T12:22:43.691Z,50.63
2023-03-24T12:24:00.410Z,50.85
2023-03-24T12:25:32.048Z,51.40
2023-03-24T12:26:35.157Z,51.08
2023-03-24T12:28:04.508Z,52.02
2023-03-24T12:29:22.008Z,51.27
2023-03-24T12:30:34.757Z,52.50
2023-03-24T12:32:02.628Z,51.91
2023-03-24T12:33:23.907Z,52.02
2023-03-24T12:34:32.033Z,51.92
2023-03-24T12:36:00.024Z,52.55
2023-03-24T12:37:16.338Z,52.38
2023-03-24T12:38:37.079Z,52.68
2023-03-24T12:39:48.264Z,52.72
2023-03-24T12:40:56.322Z,53.13
2023-03-24T12:42:11.092Z,53.25
2023-03-24T12:43:18.967Z,54.13
2023-03-24T12:44:20.853Z,53.74
2023-03-24T12:46:01.224Z,53.69
2023-03-24T12:47:21.817Z,54.60
2023-03-24T12:48:38.813Z,54.49
2023-03-24T12:49:43.592Z,54.82
2023-03-24T12:50:45.601Z,54.42
2023-03-24T12:51:55.495Z,54.87
2023-03-24T12:53:07.551Z,55.34
2023-03-24T12:54:26.604Z,55.63
2023-03-24T12:55:34.131Z,55.64
2023-03-24T12:56:41.851Z,55.62
2023-03-24T12:57:54.619Z,56.10
2023-03-24T12:59:04.991Z,55.73
2023-03-24T13:00:13.461Z,56.22
2023-03-24T13:01:32.318Z,56.32
2023-03-24T13:02:37.865Z,56.90
2023-03-24T13:03:45.779Z,56.87
2023-03-24T13:04:50.056Z,56.28
2023-03-24T13:05:56.634Z,56.47
2023-03-24T13:07:12.751Z,56.37
2023-03-24T13:08:24.292Z,56.56
2023-03-24T13:09:32.251Z,56.89
2023-03-24T13:10:40.817Z,57.44
2023-03-24T13:12:04.354Z,57.52
2023-03-24T13:13:13.287Z,57.30
2023-03-24T13:14:22.929Z,57.78
2023-03-24T13:16:09.678Z,58.24
2023-03-24T13:17:22.572Z,58.18
2023-03-24T13:18:31.186Z,57.94
2023-03-24T13:19:37.195Z,58.38
2023-03-24T13:21:04.312Z,57.92
2023-03-24T13:22:08.024Z,58.09
2023-03-24T13:23:25.420Z,58.32
2023-03-24T13:24:27.569Z,58.03
2023-03-24T13:25:45.415Z,58.39
2023-03-24T13:27:03.298Z,58.58
2023-03-24T13:28:08.104Z,58.57
2023-03-24T13:29:14.683Z,58.81
2023-03-24T13:30:19.300Z,59.09
2023-03-24T13:31:22.505Z,58.98
2023-03-24T13:32:24.605Z,59.09
2023-03-24T13:33:30.261Z,59.39
2023-03-24T13:34:36.599Z,59.38
2023-03-24T13:35:38.461Z,59.32
2023-03-24T13:36:46.513Z,59.91
2023-03-24T13:38:14.477Z,59.60
2023-03-24T13:39:21.172Z,59.94
2023-03-24T13:40:28.877Z,60.13
2023-03-24T13:41:37.907Z,59.95
2023-03-24T13:42:44.220Z,60.26
2023-03-24T13:43:57.563Z,60.50
2023-03-24T13:45:06.785Z,60.81
2023-03-24T13:46:14.346Z,60.65
2023-03-24T13:47:18.824Z,60.81
2023-03-24T13:48:50.847Z,60.86
2023-03-24T13:50:06.459Z,61.58
2023-03-24T13:51:34.965Z,61.98
2023-03-24T13:52:40.722Z,62.09
2023-03-24T13:53:56.642Z,61.90
2023-03-24T13:55:01.890Z,62.12
2023-03-24T13:56:06.966Z,62.42
2023-03-24T13:57:20.996Z,62.34
2023-03-24T13:58:26.535Z,62.45
2023-03-24T13:59:31.533Z,63.13
2023-03-24T14:00:33.880Z,63.51
2023-03-24T14:01:38.082Z,63.25
2023-03-24T14:02:50.204Z,63.84
2023-03-24T14:04:20.548Z,64.13
2023-03-24T14:05:22.480Z,65.23
2023-03-24T14:06:51.437Z,65.50
2023-03-24T14:08:15.356Z,66.30
2023-03-24T14:09:22.548Z,65.79
2023-03-24T14:10:24.282Z,65.77
2023-03-24T14:11:34.928Z,66.67
2023-03-24T14:12:52.086Z,66.93